sensor_id;sensor_type;location;lat;lon;timestamp;P1;durP1;ratioP1;P2;durP2;ratioP2
22468;SDS011;11401;50.792;4.352;2023-04-03T00:00:36;7.03;;;6.32;;
22468;SDS011;11401;50.792;4.352;2023-04-03T00:03:03;7.68;;;6.20;;
22468;SDS011;11401;50.792;4.352;2023-04-03T00:05:30;7.72;;;6.80;;
22468;SDS011;11401;50.792;4.352;2023-04-03T00:07:57;6.88;;;6.22;;
22468;SDS011;11401;50.792;4.352;2023-04-03T00:10:24;10.15;;;6.80;;
22468;SDS011;11401;50.792;4.352;2023-04-03T00:12:51;11.50;;;6.75;;
22468;SDS011;11401;50.792;4.352;2023-04-03T00:15:19;6.65;;;6.05;;
22468;SDS011;11401;50.792;4.352;2023-04-03T00:17:47;7.47;;;6.25;;
22468;SDS011;11401;50.792;4.352;2023-04-03T00:20:14;7.03;;;6.32;;
22468;SDS011;11401;50.792;4.352;2023-04-03T00:22:41;6.47;;;5.78;;
22468;SDS011;11401;50.792;4.352;2023-04-03T00:25:08;9.32;;;7.03;;
22468;SDS011;11401;50.792;4.352;2023-04-03T00:27:36;7.20;;;6.50;;
22468;SDS011;11401;50.792;4.352;2023-04-03T00:30:04;8.13;;;6.05;;
22468;SDS011;11401;50.792;4.352;2023-04-03T00:32:33;6.82;;;6.20;;
22468;SDS011;11401;50.792;4.352;2023-04-03T00:35:01;6.68;;;5.82;;
22468;SDS011;11401;50.792;4.352;2023-04-03T00:37:28;6.75;;;6.15;;
22468;SDS011;11401;50.792;4.352;2023-04-03T00:39:56;7.72;;;5.28;;
22468;SDS011;11401;50.792;4.352;2023-04-03T00:42:23;7.43;;;6.15;;
22468;SDS011;11401;50.792;4.352;2023-04-03T00:47:23;6.70;;;5.93;;
22468;SDS011;11401;50.792;4.352;2023-04-03T00:49:51;6.75;;;6.15;;
22468;SDS011;11401;50.792;4.352;2023-04-03T00:52:21;6.32;;;5.75;;
22468;SDS011;11401;50.792;4.352;2023-04-03T00:54:54;6.43;;;5.35;;
22468;SDS011;11401;50.792;4.352;2023-04-03T00:57:26;6.65;;;5.95;;
22468;SDS011;11401;50.792;4.352;2023-04-03T00:59:55;7.85;;;5.97;;
22468;SDS011;11401;50.792;4.352;2023-04-03T01:02:27;5.55;;;5.15;;
22468;SDS011;11401;50.792;4.352;2023-04-03T01:04:54;9.75;;;6.10;;
22468;SDS011;11401;50.792;4.352;2023-04-03T01:07:22;6.45;;;5.82;;
22468;SDS011;11401;50.792;4.352;2023-04-03T01:09:55;6.20;;;5.55;;
22468;SDS011;11401;50.792;4.352;2023-04-03T01:12:26;8.93;;;5.93;;
22468;SDS011;11401;50.792;4.352;2023-04-03T01:14:56;6.40;;;5.75;;
22468;SDS011;11401;50.792;4.352;2023-04-03T01:25:36;6.75;;;5.28;;
22468;SDS011;11401;50.792;4.352;2023-04-03T01:28:06;10.05;;;5.35;;
22468;SDS011;11401;50.792;4.352;2023-04-03T01:30:36;6.57;;;5.18;;
22468;SDS011;11401;50.792;4.352;2023-04-03T01:33:19;5.80;;;5.22;;
22468;SDS011;11401;50.792;4.352;2023-04-03T01:35:47;7.32;;;5.32;;
22468;SDS011;11401;50.792;4.352;2023-04-03T01:38:14;5.82;;;5.03;;
22468;SDS011;11401;50.792;4.352;2023-04-03T01:40:41;7.00;;;5.15;;
22468;SDS011;11401;50.792;4.352;2023-04-03T01:43:09;5.50;;;5.00;;
22468;SDS011;11401;50.792;4.352;2023-04-03T01:45:36;6.13;;;4.47;;
22468;SDS011;11401;50.792;4.352;2023-04-03T01:48:03;5.30;;;4.80;;
22468;SDS011;11401;50.792;4.352;2023-04-03T01:50:30;6.30;;;5.38;;
22468;SDS011;11401;50.792;4.352;2023-04-03T01:52:57;7.07;;;5.32;;
22468;SDS011;11401;50.792;4.352;2023-04-03T01:55:25;6.45;;;5.00;;
22468;SDS011;11401;50.792;4.352;2023-04-03T01:57:52;6.45;;;4.47;;
22468;SDS011;11401;50.792;4.352;2023-04-03T02:00:19;5.63;;;5.13;;
22468;SDS011;11401;50.792;4.352;2023-04-03T02:02:46;6.18;;;5.00;;
22468;SDS011;11401;50.792;4.352;2023-04-03T02:05:13;5.38;;;4.82;;
22468;SDS011;11401;50.792;4.352;2023-04-03T02:07:40;5.72;;;4.55;;
22468;SDS011;11401;50.792;4.352;2023-04-03T02:10:09;5.40;;;4.10;;
22468;SDS011;11401;50.792;4.352;2023-04-03T02:12:36;5.82;;;4.72;;
22468;SDS011;11401;50.792;4.352;2023-04-03T02:15:04;5.00;;;4.50;;
22468;SDS011;11401;50.792;4.352;2023-04-03T02:17:31;4.70;;;4.30;;
22468;SDS011;11401;50.792;4.352;2023-04-03T02:19:58;5.50;;;4.63;;
22468;SDS011;11401;50.792;4.352;2023-04-03T02:22:25;6.97;;;4.70;;
22468;SDS011;11401;50.792;4.352;2023-04-03T02:24:52;5.32;;;4.85;;
22468;SDS011;11401;50.792;4.352;2023-04-03T02:27:19;5.45;;;4.95;;
22468;SDS011;11401;50.792;4.352;2023-04-03T02:29:47;6.70;;;4.68;;
22468;SDS011;11401;50.792;4.352;2023-04-03T02:32:14;4.90;;;4.40;;
22468;SDS011;11401;50.792;4.352;2023-04-03T02:34:42;4.95;;;4.45;;
22468;SDS011;11401;50.792;4.352;2023-04-03T02:37:11;4.97;;;4.55;;
22468;SDS011;11401;50.792;4.352;2023-04-03T02:39:39;4.57;;;4.18;;
22468;SDS011;11401;50.792;4.352;2023-04-03T02:42:06;5.22;;;4.72;;
22468;SDS011;11401;50.792;4.352;2023-04-03T02:44:34;5.55;;;4.75;;
22468;SDS011;11401;50.792;4.352;2023-04-03T02:47:01;6.00;;;4.75;;
22468;SDS011;11401;50.792;4.352;2023-04-03T02:49:29;5.20;;;4.70;;
22468;SDS011;11401;50.792;4.352;2023-04-03T02:51:56;7.40;;;4.70;;
22468;SDS011;11401;50.792;4.352;2023-04-03T02:54:23;5.18;;;4.60;;
22468;SDS011;11401;50.792;4.352;2023-04-03T02:56:56;5.78;;;4.75;;
22468;SDS011;11401;50.792;4.352;2023-04-03T02:59:24;6.32;;;4.28;;
22468;SDS011;11401;50.792;4.352;2023-04-03T03:01:51;6.35;;;4.50;;
22468;SDS011;11401;50.792;4.352;2023-04-03T03:04:19;6.18;;;4.80;;
22468;SDS011;11401;50.792;4.352;2023-04-03T03:06:46;5.72;;;4.47;;
22468;SDS011;11401;50.792;4.352;2023-04-03T03:09:13;8.77;;;4.78;;
22468;SDS011;11401;50.792;4.352;2023-04-03T03:11:41;4.60;;;4.18;;
22468;SDS011;11401;50.792;4.352;2023-04-03T03:14:09;5.55;;;4.05;;
22468;SDS011;11401;50.792;4.352;2023-04-03T03:16:36;5.53;;;4.22;;
22468;SDS011;11401;50.792;4.352;2023-04-03T03:19:03;7.70;;;5.05;;
22468;SDS011;11401;50.792;4.352;2023-04-03T03:21:30;5.45;;;4.50;;
22468;SDS011;11401;50.792;4.352;2023-04-03T03:23:57;6.43;;;4.93;;
22468;SDS011;11401;50.792;4.352;2023-04-03T03:26:25;6.93;;;4.40;;
22468;SDS011;11401;50.792;4.352;2023-04-03T03:28:54;4.82;;;4.40;;
22468;SDS011;11401;50.792;4.352;2023-04-03T03:31:21;5.22;;;4.40;;
22468;SDS011;11401;50.792;4.352;2023-04-03T03:33:48;4.40;;;4.00;;
22468;SDS011;11401;50.792;4.352;2023-04-03T03:36:15;5.20;;;4.13;;
22468;SDS011;11401;50.792;4.352;2023-04-03T03:38:42;7.53;;;4.38;;
22468;SDS011;11401;50.792;4.352;2023-04-03T03:41:09;5.38;;;4.65;;
22468;SDS011;11401;50.792;4.352;2023-04-03T03:43:37;6.82;;;4.80;;
22468;SDS011;11401;50.792;4.352;2023-04-03T03:46:06;5.78;;;4.65;;
22468;SDS011;11401;50.792;4.352;2023-04-03T03:48:33;6.32;;;5.07;;
22468;SDS011;11401;50.792;4.352;2023-04-03T03:51:00;5.10;;;4.28;;
22468;SDS011;11401;50.792;4.352;2023-04-03T03:53:31;5.38;;;4.88;;
22468;SDS011;11401;50.792;4.352;2023-04-03T03:56:03;5.20;;;4.57;;
22468;SDS011;11401;50.792;4.352;2023-04-03T03:58:33;5.65;;;4.65;;
22468;SDS011;11401;50.792;4.352;2023-04-03T04:01:02;5.13;;;4.50;;
22468;SDS011;11401;50.792;4.352;2023-04-03T04:03:30;5.55;;;4.85;;
22468;SDS011;11401;50.792;4.352;2023-04-03T04:05:57;6.53;;;4.93;;
22468;SDS011;11401;50.792;4.352;2023-04-03T04:08:24;4.75;;;4.25;;
22468;SDS011;11401;50.792;4.352;2023-04-03T04:10:51;5.22;;;4.57;;
22468;SDS011;11401;50.792;4.352;2023-04-03T04:13:19;5.97;;;4.57;;
22468;SDS011;11401;50.792;4.352;2023-04-03T04:15:46;6.88;;;4.30;;
22468;SDS011;11401;50.792;4.352;2023-04-03T04:18:15;8.55;;;4.85;;
22468;SDS011;11401;50.792;4.352;2023-04-03T04:20:45;6.68;;;5.07;;
22468;SDS011;11401;50.792;4.352;2023-04-03T04:23:14;9.50;;;4.68;;
22468;SDS011;11401;50.792;4.352;2023-04-03T04:25:43;6.50;;;4.85;;
22468;SDS011;11401;50.792;4.352;2023-04-03T04:28:12;5.30;;;4.80;;
22468;SDS011;11401;50.792;4.352;2023-04-03T04:30:40;5.05;;;4.65;;
22468;SDS011;11401;50.792;4.352;2023-04-03T04:33:07;4.82;;;4.47;;
22468;SDS011;11401;50.792;4.352;2023-04-03T04:35:35;5.32;;;4.38;;
22468;SDS011;11401;50.792;4.352;2023-04-03T04:38:03;5.72;;;4.38;;
22468;SDS011;11401;50.792;4.352;2023-04-03T04:40:30;5.20;;;4.70;;
22468;SDS011;11401;50.792;4.352;2023-04-03T04:42:58;4.60;;;4.20;;
22468;SDS011;11401;50.792;4.352;2023-04-03T04:45:25;4.53;;;4.13;;
22468;SDS011;11401;50.792;4.352;2023-04-03T04:47:54;7.68;;;4.28;;
22468;SDS011;11401;50.792;4.352;2023-04-03T04:50:23;5.32;;;4.22;;
22468;SDS011;11401;50.792;4.352;2023-04-03T04:52:54;4.90;;;4.45;;
22468;SDS011;11401;50.792;4.352;2023-04-03T04:55:21;6.20;;;4.60;;
22468;SDS011;11401;50.792;4.352;2023-04-03T04:57:49;9.43;;;5.22;;
22468;SDS011;11401;50.792;4.352;2023-04-03T05:00:16;5.05;;;4.55;;
22468;SDS011;11401;50.792;4.352;2023-04-03T05:02:43;6.72;;;4.85;;
22468;SDS011;11401;50.792;4.352;2023-04-03T05:05:11;8.10;;;5.15;;
22468;SDS011;11401;50.792;4.352;2023-04-03T05:07:39;5.28;;;4.25;;
22468;SDS011;11401;50.792;4.352;2023-04-03T05:10:07;4.70;;;4.30;;
22468;SDS011;11401;50.792;4.352;2023-04-03T05:12:35;5.32;;;4.70;;
22468;SDS011;11401;50.792;4.352;2023-04-03T05:15:03;5.97;;;4.07;;
22468;SDS011;11401;50.792;4.352;2023-04-03T05:17:32;6.63;;;4.53;;
22468;SDS011;11401;50.792;4.352;2023-04-03T05:19:59;7.10;;;5.15;;
22468;SDS011;11401;50.792;4.352;2023-04-03T05:22:27;7.00;;;5.65;;
22468;SDS011;11401;50.792;4.352;2023-04-03T05:25:00;8.43;;;6.03;;
22468;SDS011;11401;50.792;4.352;2023-04-03T05:27:27;8.95;;;5.50;;
22468;SDS011;11401;50.792;4.352;2023-04-03T05:29:56;5.28;;;4.78;;
22468;SDS011;11401;50.792;4.352;2023-04-03T05:32:24;12.73;;;5.30;;
22468;SDS011;11401;50.792;4.352;2023-04-03T05:35:20;8.48;;;5.07;;
22468;SDS011;11401;50.792;4.352;2023-04-03T05:37:50;8.25;;;5.57;;
22468;SDS011;11401;50.792;4.352;2023-04-03T05:40:17;7.82;;;5.72;;
22468;SDS011;11401;50.792;4.352;2023-04-03T05:42:48;6.22;;;5.30;;
22468;SDS011;11401;50.792;4.352;2023-04-03T05:45:17;8.90;;;5.78;;
22468;SDS011;11401;50.792;4.352;2023-04-03T05:47:44;9.88;;;5.65;;
22468;SDS011;11401;50.792;4.352;2023-04-03T05:50:12;9.90;;;5.20;;
22468;SDS011;11401;50.792;4.352;2023-04-03T05:52:40;5.82;;;5.28;;
22468;SDS011;11401;50.792;4.352;2023-04-03T05:55:10;11.23;;;5.85;;
22468;SDS011;11401;50.792;4.352;2023-04-03T05:57:38;6.50;;;5.72;;
22468;SDS011;11401;50.792;4.352;2023-04-03T06:00:06;5.97;;;5.38;;
22468;SDS011;11401;50.792;4.352;2023-04-03T06:02:44;7.75;;;5.35;;
22468;SDS011;11401;50.792;4.352;2023-04-03T06:05:17;6.40;;;5.78;;
22468;SDS011;11401;50.792;4.352;2023-04-03T06:07:45;7.95;;;5.72;;
22468;SDS011;11401;50.792;4.352;2023-04-03T06:10:12;7.18;;;5.65;;
22468;SDS011;11401;50.792;4.352;2023-04-03T06:12:39;8.40;;;5.32;;
22468;SDS011;11401;50.792;4.352;2023-04-03T06:15:06;8.80;;;5.82;;
22468;SDS011;11401;50.792;4.352;2023-04-03T06:17:36;6.22;;;5.60;;
22468;SDS011;11401;50.792;4.352;2023-04-03T06:20:04;12.80;;;6.32;;
22468;SDS011;11401;50.792;4.352;2023-04-03T06:22:32;10.43;;;6.57;;
22468;SDS011;11401;50.792;4.352;2023-04-03T06:25:00;6.28;;;5.40;;
22468;SDS011;11401;50.792;4.352;2023-04-03T06:27:27;7.80;;;6.38;;
22468;SDS011;11401;50.792;4.352;2023-04-03T06:29:54;8.23;;;5.50;;
22468;SDS011;11401;50.792;4.352;2023-04-03T06:32:21;10.45;;;6.28;;
22468;SDS011;11401;50.792;4.352;2023-04-03T06:34:48;9.82;;;5.97;;
22468;SDS011;11401;50.792;4.352;2023-04-03T06:37:20;10.20;;;6.50;;
22468;SDS011;11401;50.792;4.352;2023-04-03T06:39:49;7.35;;;6.47;;
22468;SDS011;11401;50.792;4.352;2023-04-03T06:42:16;8.50;;;6.10;;
22468;SDS011;11401;50.792;4.352;2023-04-03T06:45:06;7.25;;;5.80;;
22468;SDS011;11401;50.792;4.352;2023-04-03T06:47:34;8.23;;;6.22;;
22468;SDS011;11401;50.792;4.352;2023-04-03T06:50:01;8.38;;;5.72;;
22468;SDS011;11401;50.792;4.352;2023-04-03T06:52:28;11.13;;;5.70;;
22468;SDS011;11401;50.792;4.352;2023-04-03T06:54:55;8.55;;;6.22;;
22468;SDS011;11401;50.792;4.352;2023-04-03T06:57:25;10.65;;;6.55;;
22468;SDS011;11401;50.792;4.352;2023-04-03T06:59:52;6.93;;;5.72;;
22468;SDS011;11401;50.792;4.352;2023-04-03T07:02:19;6.63;;;5.85;;
22468;SDS011;11401;50.792;4.352;2023-04-03T07:04:47;8.63;;;6.20;;
22468;SDS011;11401;50.792;4.352;2023-04-03T07:07:14;8.50;;;6.32;;
22468;SDS011;11401;50.792;4.352;2023-04-03T07:09:41;11.05;;;6.30;;
22468;SDS011;11401;50.792;4.352;2023-04-03T07:12:10;10.25;;;6.22;;
22468;SDS011;11401;50.792;4.352;2023-04-03T07:14:37;6.75;;;5.35;;
22468;SDS011;11401;50.792;4.352;2023-04-03T07:17:04;7.10;;;6.20;;
22468;SDS011;11401;50.792;4.352;2023-04-03T07:19:31;7.47;;;5.70;;
22468;SDS011;11401;50.792;4.352;2023-04-03T07:21:58;13.65;;;6.70;;
22468;SDS011;11401;50.792;4.352;2023-04-03T07:24:26;6.47;;;5.88;;
22468;SDS011;11401;50.792;4.352;2023-04-03T07:26:53;7.10;;;5.53;;
22468;SDS011;11401;50.792;4.352;2023-04-03T07:29:20;9.60;;;6.15;;
22468;SDS011;11401;50.792;4.352;2023-04-03T07:31:48;8.60;;;5.65;;
22468;SDS011;11401;50.792;4.352;2023-04-03T07:34:15;8.30;;;5.88;;
22468;SDS011;11401;50.792;4.352;2023-04-03T07:36:42;7.55;;;6.18;;
22468;SDS011;11401;50.792;4.352;2023-04-03T07:39:09;10.43;;;5.68;;
22468;SDS011;11401;50.792;4.352;2023-04-03T07:41:37;9.35;;;5.80;;
22468;SDS011;11401;50.792;4.352;2023-04-03T07:44:04;7.88;;;5.30;;
22468;SDS011;11401;50.792;4.352;2023-04-03T07:46:32;6.55;;;5.55;;
22468;SDS011;11401;50.792;4.352;2023-04-03T07:48:59;6.72;;;6.03;;
22468;SDS011;11401;50.792;4.352;2023-04-03T07:51:26;7.75;;;5.57;;
22468;SDS011;11401;50.792;4.352;2023-04-03T07:53:54;8.13;;;5.93;;
22468;SDS011;11401;50.792;4.352;2023-04-03T07:56:21;8.70;;;5.93;;
22468;SDS011;11401;50.792;4.352;2023-04-03T07:58:49;11.40;;;5.78;;
22468;SDS011;11401;50.792;4.352;2023-04-03T08:01:16;7.10;;;5.25;;
22468;SDS011;11401;50.792;4.352;2023-04-03T08:03:43;7.72;;;5.13;;
22468;SDS011;11401;50.792;4.352;2023-04-03T08:06:10;6.13;;;5.43;;
22468;SDS011;11401;50.792;4.352;2023-04-03T08:08:42;6.32;;;5.57;;
22468;SDS011;11401;50.792;4.352;2023-04-03T08:11:09;5.18;;;4.60;;
22468;SDS011;11401;50.792;4.352;2023-04-03T08:13:37;6.00;;;5.38;;
22468;SDS011;11401;50.792;4.352;2023-04-03T08:16:12;5.07;;;4.57;;
22468;SDS011;11401;50.792;4.352;2023-04-03T08:18:43;5.85;;;5.05;;
22468;SDS011;11401;50.792;4.352;2023-04-03T08:21:11;5.13;;;4.30;;
22468;SDS011;11401;50.792;4.352;2023-04-03T08:23:39;6.32;;;4.63;;
22468;SDS011;11401;50.792;4.352;2023-04-03T08:26:09;5.40;;;4.70;;
22468;SDS011;11401;50.792;4.352;2023-04-03T08:28:38;5.55;;;3.88;;
22468;SDS011;11401;50.792;4.352;2023-04-03T08:31:06;8.65;;;4.35;;
22468;SDS011;11401;50.792;4.352;2023-04-03T08:33:38;4.85;;;4.25;;
22468;SDS011;11401;50.792;4.352;2023-04-03T08:36:06;4.70;;;4.20;;
22468;SDS011;11401;50.792;4.352;2023-04-03T08:38:42;4.93;;;3.88;;
22468;SDS011;11401;50.792;4.352;2023-04-03T08:43:49;7.50;;;4.15;;
22468;SDS011;11401;50.792;4.352;2023-04-03T08:46:19;4.78;;;3.70;;
22468;SDS011;11401;50.792;4.352;2023-04-03T08:48:52;5.05;;;4.47;;
22468;SDS011;11401;50.792;4.352;2023-04-03T08:51:21;4.50;;;4.00;;
22468;SDS011;11401;50.792;4.352;2023-04-03T08:53:54;5.45;;;3.33;;
22468;SDS011;11401;50.792;4.352;2023-04-03T08:56:25;3.40;;;3.10;;
22468;SDS011;11401;50.792;4.352;2023-04-03T08:58:56;5.80;;;4.00;;
22468;SDS011;11401;50.792;4.352;2023-04-03T09:01:37;7.55;;;3.85;;
22468;SDS011;11401;50.792;4.352;2023-04-03T09:04:10;6.78;;;3.90;;
22468;SDS011;11401;50.792;4.352;2023-04-03T09:06:41;5.82;;;3.05;;
22468;SDS011;11401;50.792;4.352;2023-04-03T09:14:36;11.57;;;4.30;;
22468;SDS011;11401;50.792;4.352;2023-04-03T09:17:12;4.38;;;3.40;;
22468;SDS011;11401;50.792;4.352;2023-04-03T09:19:41;4.82;;;3.85;;
22468;SDS011;11401;50.792;4.352;2023-04-03T09:22:21;7.10;;;3.50;;
22468;SDS011;11401;50.792;4.352;2023-04-03T09:25:00;4.88;;;3.15;;
22468;SDS011;11401;50.792;4.352;2023-04-03T09:27:35;6.13;;;3.28;;
22468;SDS011;11401;50.792;4.352;2023-04-03T09:30:02;4.57;;;3.20;;
22468;SDS011;11401;50.792;4.352;2023-04-03T09:32:30;4.00;;;2.97;;
22468;SDS011;11401;50.792;4.352;2023-04-03T09:37:59;4.50;;;3.22;;
22468;SDS011;11401;50.792;4.352;2023-04-03T09:40:49;4.80;;;3.13;;
22468;SDS011;11401;50.792;4.352;2023-04-03T09:43:30;3.75;;;2.33;;
22468;SDS011;11401;50.792;4.352;2023-04-03T09:48:58;6.82;;;2.50;;
22468;SDS011;11401;50.792;4.352;2023-04-03T09:51:35;3.58;;;2.70;;
22468;SDS011;11401;50.792;4.352;2023-04-03T09:54:26;2.90;;;2.63;;
22468;SDS011;11401;50.792;4.352;2023-04-03T09:56:56;6.22;;;2.92;;
22468;SDS011;11401;50.792;4.352;2023-04-03T09:59:32;3.78;;;2.50;;
22468;SDS011;11401;50.792;4.352;2023-04-03T10:02:04;3.35;;;2.40;;
22468;SDS011;11401;50.792;4.352;2023-04-03T10:04:45;3.25;;;2.53;;
22468;SDS011;11401;50.792;4.352;2023-04-03T10:09:57;5.70;;;2.70;;
22468;SDS011;11401;50.792;4.352;2023-04-03T10:12:27;2.38;;;2.17;;
22468;SDS011;11401;50.792;4.352;2023-04-03T10:14:56;3.45;;;2.50;;
22468;SDS011;11401;50.792;4.352;2023-04-03T10:23:05;3.95;;;2.70;;
22468;SDS011;11401;50.792;4.352;2023-04-03T10:33:53;2.67;;;2.22;;
22468;SDS011;11401;50.792;4.352;2023-04-03T10:50:52;3.13;;;2.20;;
22468;SDS011;11401;50.792;4.352;2023-04-03T10:58:35;3.28;;;1.92;;
22468;SDS011;11401;50.792;4.352;2023-04-03T11:01:07;2.78;;;2.50;;
22468;SDS011;11401;50.792;4.352;2023-04-03T11:03:39;3.38;;;2.28;;
22468;SDS011;11401;50.792;4.352;2023-04-03T11:06:14;3.10;;;1.95;;
22468;SDS011;11401;50.792;4.352;2023-04-03T11:11:24;5.45;;;2.33;;
22468;SDS011;11401;50.792;4.352;2023-04-03T11:14:10;2.45;;;2.25;;
22468;SDS011;11401;50.792;4.352;2023-04-03T11:16:51;4.22;;;2.03;;
22468;SDS011;11401;50.792;4.352;2023-04-03T11:22:30;4.10;;;2.20;;
22468;SDS011;11401;50.792;4.352;2023-04-03T11:27:38;2.35;;;2.15;;
22468;SDS011;11401;50.792;4.352;2023-04-03T11:30:16;5.38;;;2.20;;
22468;SDS011;11401;50.792;4.352;2023-04-03T11:35:45;4.63;;;2.20;;
22468;SDS011;11401;50.792;4.352;2023-04-03T11:38:17;5.35;;;2.40;;
22468;SDS011;11401;50.792;4.352;2023-04-03T11:40:49;3.50;;;1.85;;
22468;SDS011;11401;50.792;4.352;2023-04-03T11:43:27;2.88;;;2.00;;
22468;SDS011;11401;50.792;4.352;2023-04-03T11:46:03;3.83;;;2.13;;
22468;SDS011;11401;50.792;4.352;2023-04-03T11:53:47;1.52;;;1.42;;
22468;SDS011;11401;50.792;4.352;2023-04-03T12:01:52;4.00;;;1.83;;
22468;SDS011;11401;50.792;4.352;2023-04-03T12:04:22;4.03;;;1.95;;
22468;SDS011;11401;50.792;4.352;2023-04-03T12:07:25;3.20;;;1.98;;
22468;SDS011;11401;50.792;4.352;2023-04-03T12:15:16;2.50;;;1.77;;
22468;SDS011;11401;50.792;4.352;2023-04-03T12:17:44;2.03;;;1.73;;
22468;SDS011;11401;50.792;4.352;2023-04-03T12:20:57;3.97;;;1.80;;
22468;SDS011;11401;50.792;4.352;2023-04-03T12:23:33;4.05;;;2.10;;
22468;SDS011;11401;50.792;4.352;2023-04-03T12:26:27;1.75;;;1.63;;
22468;SDS011;11401;50.792;4.352;2023-04-03T12:32:22;4.38;;;1.95;;
22468;SDS011;11401;50.792;4.352;2023-04-03T12:37:41;2.90;;;2.05;;
22468;SDS011;11401;50.792;4.352;2023-04-03T12:45:38;4.05;;;2.13;;
22468;SDS011;11401;50.792;4.352;2023-04-03T12:48:09;4.10;;;2.05;;
22468;SDS011;11401;50.792;4.352;2023-04-03T12:50:43;2.40;;;2.20;;
22468;SDS011;11401;50.792;4.352;2023-04-03T12:53:15;4.70;;;2.30;;
22468;SDS011;11401;50.792;4.352;2023-04-03T12:55:55;2.70;;;2.50;;
22468;SDS011;11401;50.792;4.352;2023-04-03T12:58:24;4.25;;;2.33;;
22468;SDS011;11401;50.792;4.352;2023-04-03T13:01:00;3.13;;;1.90;;
22468;SDS011;11401;50.792;4.352;2023-04-03T13:03:29;3.08;;;2.17;;
22468;SDS011;11401;50.792;4.352;2023-04-03T13:05:59;3.45;;;2.20;;
22468;SDS011;11401;50.792;4.352;2023-04-03T13:08:28;2.90;;;2.05;;
22468;SDS011;11401;50.792;4.352;2023-04-03T13:10:56;3.33;;;2.15;;
22468;SDS011;11401;50.792;4.352;2023-04-03T13:13:37;2.13;;;1.92;;
22468;SDS011;11401;50.792;4.352;2023-04-03T13:16:09;3.63;;;1.83;;
22468;SDS011;11401;50.792;4.352;2023-04-03T13:18:38;3.25;;;1.98;;
22468;SDS011;11401;50.792;4.352;2023-04-03T13:21:12;1.95;;;1.50;;
22468;SDS011;11401;50.792;4.352;2023-04-03T13:23:45;2.00;;;1.80;;
22468;SDS011;11401;50.792;4.352;2023-04-03T13:26:19;3.72;;;2.92;;
22468;SDS011;11401;50.792;4.352;2023-04-03T13:28:47;2.60;;;2.13;;
22468;SDS011;11401;50.792;4.352;2023-04-03T13:31:20;2.50;;;1.90;;
22468;SDS011;11401;50.792;4.352;2023-04-03T13:36:36;3.40;;;1.60;;
22468;SDS011;11401;50.792;4.352;2023-04-03T13:41:43;2.30;;;1.50;;
22468;SDS011;11401;50.792;4.352;2023-04-03T13:49:33;2.95;;;1.75;;
22468;SDS011;11401;50.792;4.352;2023-04-03T13:52:26;2.60;;;1.80;;
22468;SDS011;11401;50.792;4.352;2023-04-03T13:55:00;2.28;;;1.80;;
22468;SDS011;11401;50.792;4.352;2023-04-03T14:00:32;3.58;;;1.70;;
22468;SDS011;11401;50.792;4.352;2023-04-03T14:03:00;3.13;;;1.70;;
22468;SDS011;11401;50.792;4.352;2023-04-03T14:05:27;7.45;;;2.38;;
22468;SDS011;11401;50.792;4.352;2023-04-03T14:07:54;5.35;;;2.22;;
22468;SDS011;11401;50.792;4.352;2023-04-03T14:10:21;2.30;;;1.67;;
22468;SDS011;11401;50.792;4.352;2023-04-03T14:12:49;3.47;;;1.70;;
22468;SDS011;11401;50.792;4.352;2023-04-03T14:15:23;7.13;;;2.20;;
22468;SDS011;11401;50.792;4.352;2023-04-03T14:17:52;5.53;;;2.10;;
22468;SDS011;11401;50.792;4.352;2023-04-03T14:20:23;4.20;;;2.22;;
22468;SDS011;11401;50.792;4.352;2023-04-03T14:22:53;3.10;;;2.13;;
22468;SDS011;11401;50.792;4.352;2023-04-03T14:25:20;3.45;;;2.50;;
22468;SDS011;11401;50.792;4.352;2023-04-03T14:27:50;7.85;;;2.50;;
22468;SDS011;11401;50.792;4.352;2023-04-03T14:30:23;2.75;;;1.85;;
22468;SDS011;11401;50.792;4.352;2023-04-03T14:32:56;4.30;;;2.20;;
22468;SDS011;11401;50.792;4.352;2023-04-03T14:35:24;2.47;;;1.80;;
22468;SDS011;11401;50.792;4.352;2023-04-03T14:37:52;3.97;;;2.22;;
22468;SDS011;11401;50.792;4.352;2023-04-03T14:40:22;2.63;;;2.20;;
22468;SDS011;11401;50.792;4.352;2023-04-03T14:42:52;4.20;;;1.80;;
22468;SDS011;11401;50.792;4.352;2023-04-03T14:45:22;1.92;;;1.70;;
22468;SDS011;11401;50.792;4.352;2023-04-03T14:47:51;3.42;;;2.53;;
22468;SDS011;11401;50.792;4.352;2023-04-03T14:50:23;2.65;;;1.75;;
22468;SDS011;11401;50.792;4.352;2023-04-03T14:52:53;2.70;;;2.10;;
22468;SDS011;11401;50.792;4.352;2023-04-03T14:55:22;3.28;;;1.73;;
22468;SDS011;11401;50.792;4.352;2023-04-03T14:57:50;5.75;;;1.70;;
22468;SDS011;11401;50.792;4.352;2023-04-03T15:00:19;4.88;;;1.75;;
22468;SDS011;11401;50.792;4.352;2023-04-03T15:02:47;2.47;;;1.63;;
22468;SDS011;11401;50.792;4.352;2023-04-03T15:05:15;2.47;;;1.88;;
22468;SDS011;11401;50.792;4.352;2023-04-03T15:07:44;3.95;;;2.08;;
22468;SDS011;11401;50.792;4.352;2023-04-03T15:12:54;3.63;;;2.55;;
22468;SDS011;11401;50.792;4.352;2023-04-03T15:15:22;4.65;;;2.50;;
22468;SDS011;11401;50.792;4.352;2023-04-03T15:17:51;5.10;;;1.85;;
22468;SDS011;11401;50.792;4.352;2023-04-03T15:20:22;2.17;;;1.95;;
22468;SDS011;11401;50.792;4.352;2023-04-03T15:22:51;3.13;;;1.52;;
22468;SDS011;11401;50.792;4.352;2023-04-03T15:25:18;3.10;;;1.98;;
22468;SDS011;11401;50.792;4.352;2023-04-03T15:27:45;4.15;;;1.95;;
22468;SDS011;11401;50.792;4.352;2023-04-03T15:30:16;2.75;;;2.00;;
22468;SDS011;11401;50.792;4.352;2023-04-03T15:32:44;6.63;;;1.83;;
22468;SDS011;11401;50.792;4.352;2023-04-03T15:35:12;3.10;;;1.80;;
22468;SDS011;11401;50.792;4.352;2023-04-03T15:37:39;4.38;;;2.20;;
22468;SDS011;11401;50.792;4.352;2023-04-03T15:40:07;2.85;;;1.90;;
22468;SDS011;11401;50.792;4.352;2023-04-03T15:42:35;2.70;;;2.10;;
22468;SDS011;11401;50.792;4.352;2023-04-03T15:45:03;2.80;;;1.90;;
22468;SDS011;11401;50.792;4.352;2023-04-03T15:47:31;2.67;;;2.10;;
22468;SDS011;11401;50.792;4.352;2023-04-03T15:49:58;4.43;;;2.70;;
22468;SDS011;11401;50.792;4.352;2023-04-03T15:52:27;3.90;;;2.20;;
22468;SDS011;11401;50.792;4.352;2023-04-03T15:54:54;5.68;;;2.03;;
22468;SDS011;11401;50.792;4.352;2023-04-03T15:57:21;3.47;;;2.20;;
22468;SDS011;11401;50.792;4.352;2023-04-03T15:59:52;3.63;;;2.17;;
22468;SDS011;11401;50.792;4.352;2023-04-03T16:02:20;2.78;;;2.42;;
22468;SDS011;11401;50.792;4.352;2023-04-03T16:04:47;3.83;;;2.28;;
22468;SDS011;11401;50.792;4.352;2023-04-03T16:07:15;2.75;;;1.88;;
22468;SDS011;11401;50.792;4.352;2023-04-03T16:09:42;4.80;;;2.33;;
22468;SDS011;11401;50.792;4.352;2023-04-03T16:12:09;2.00;;;1.85;;
22468;SDS011;11401;50.792;4.352;2023-04-03T16:14:36;2.40;;;2.00;;
22468;SDS011;11401;50.792;4.352;2023-04-03T16:17:03;4.82;;;2.78;;
22468;SDS011;11401;50.792;4.352;2023-04-03T16:19:30;3.53;;;2.30;;
22468;SDS011;11401;50.792;4.352;2023-04-03T16:21:57;5.82;;;2.10;;
22468;SDS011;11401;50.792;4.352;2023-04-03T16:24:24;2.40;;;2.05;;
22468;SDS011;11401;50.792;4.352;2023-04-03T16:26:51;4.60;;;2.33;;
22468;SDS011;11401;50.792;4.352;2023-04-03T16:29:19;5.88;;;2.30;;
22468;SDS011;11401;50.792;4.352;2023-04-03T16:31:46;7.72;;;2.30;;
22468;SDS011;11401;50.792;4.352;2023-04-03T16:34:14;3.88;;;2.20;;
22468;SDS011;11401;50.792;4.352;2023-04-03T16:36:42;3.42;;;2.15;;
22468;SDS011;11401;50.792;4.352;2023-04-03T16:39:09;2.00;;;1.90;;
22468;SDS011;11401;50.792;4.352;2023-04-03T16:41:36;3.00;;;2.10;;
22468;SDS011;11401;50.792;4.352;2023-04-03T16:44:04;2.22;;;2.03;;
22468;SDS011;11401;50.792;4.352;2023-04-03T16:46:33;5.75;;;2.53;;
22468;SDS011;11401;50.792;4.352;2023-04-03T16:49:00;3.65;;;2.13;;
22468;SDS011;11401;50.792;4.352;2023-04-03T16:51:27;6.00;;;2.40;;
22468;SDS011;11401;50.792;4.352;2023-04-03T16:53:55;2.58;;;1.98;;
22468;SDS011;11401;50.792;4.352;2023-04-03T16:56:22;2.60;;;2.17;;
22468;SDS011;11401;50.792;4.352;2023-04-03T16:58:49;4.60;;;1.98;;